地図

経路データ

SID SEASON NUMBER BASIN SUBBASIN NAME ISO_TIME NATURE LAT LON WMO_WIND WMO_PRES WMO_AGENCY TRACK_TYPE DIST2LAND LANDFALL IFLAG USA_AGENCY USA_ATCF_ID USA_LAT USA_LON USA_RECORD USA_STATUS USA_WIND USA_PRES USA_SSHS USA_R34_NE USA_R34_SE USA_R34_SW USA_R34_NW USA_R50_NE USA_R50_SE USA_R50_SW USA_R50_NW USA_R64_NE USA_R64_SE USA_R64_SW USA_R64_NW USA_POCI USA_ROCI USA_RMW USA_EYE TOKYO_LAT TOKYO_LON TOKYO_GRADE TOKYO_WIND TOKYO_PRES TOKYO_R50_DIR TOKYO_R50_LONG TOKYO_R50_SHORT TOKYO_R30_DIR TOKYO_R30_LONG TOKYO_R30_SHORT TOKYO_LAND CMA_LAT CMA_LON CMA_CAT CMA_WIND CMA_PRES HKO_LAT HKO_LON HKO_CAT HKO_WIND HKO_PRES NEWDELHI_LAT NEWDELHI_LON NEWDELHI_GRADE NEWDELHI_WIND NEWDELHI_PRES NEWDELHI_CI NEWDELHI_DP NEWDELHI_POCI REUNION_LAT REUNION_LON REUNION_TYPE REUNION_WIND REUNION_PRES REUNION_TNUM REUNION_CI REUNION_RMW REUNION_R34_NE REUNION_R34_SE REUNION_R34_SW REUNION_R34_NW REUNION_R50_NE REUNION_R50_SE REUNION_R50_SW REUNION_R50_NW REUNION_R64_NE REUNION_R64_SE REUNION_R64_SW REUNION_R64_NW BOM_LAT BOM_LON BOM_TYPE BOM_WIND BOM_PRES BOM_TNUM BOM_CI BOM_RMW BOM_R34_NE BOM_R34_SE BOM_R34_SW BOM_R34_NW BOM_R50_NE BOM_R50_SE BOM_R50_SW BOM_R50_NW BOM_R64_NE BOM_R64_SE BOM_R64_SW BOM_R64_NW BOM_ROCI BOM_POCI BOM_EYE BOM_POS_METHOD BOM_PRES_METHOD NADI_LAT NADI_LON NADI_CAT NADI_WIND NADI_PRES WELLINGTON_LAT WELLINGTON_LON WELLINGTON_WIND WELLINGTON_PRES DS824_LAT DS824_LON DS824_STAGE DS824_WIND DS824_PRES TD9636_LAT TD9636_LON TD9636_STAGE TD9636_WIND TD9636_PRES TD9635_LAT TD9635_LON TD9635_WIND TD9635_PRES TD9635_ROCI NEUMANN_LAT NEUMANN_LON NEUMANN_CLASS NEUMANN_WIND NEUMANN_PRES MLC_LAT MLC_LON MLC_CLASS MLC_WIND MLC_PRES USA_GUST BOM_GUST BOM_GUST_PER REUNION_GUST REUNION_GUST_PER USA_SEAHGT USA_SEARAD_NE USA_SEARAD_SE USA_SEARAD_SW USA_SEARAD_NW STORM_SPEED STORM_DIR
1939146N14114 1939 26 WP MM NOT_NAMED 1939-05-26 10:00:00 NR 14.2000 114.100 main 518 518 __________O___ -1 14.2000 114.100 7 8 0
1939146N14114 1939 26 WP MM NOT_NAMED 1939-05-26 12:00:00 NR 14.4608 114.124 main 522 522 __________P___ -1 14.4608 114.124 7 8 5
1939146N14114 1939 26 WP MM NOT_NAMED 1939-05-26 15:00:00 NR 14.8479 114.150 main 537 539 __________P___ -1 14.8479 114.150 7 8 3
1939146N14114 1939 26 WP MM NOT_NAMED 1939-05-26 18:00:00 NR 15.2247 114.154 main 547 523 __________P___ -1 15.2247 114.154 7 7 359
1939146N14114 1939 26 WP MM NOT_NAMED 1939-05-26 21:00:00 NR 15.5847 114.121 main 523 516 __________P___ -1 15.5847 114.121 7 7 354
1939146N14114 1939 26 WP MM NOT_NAMED 1939-05-26 22:00:00 NR 15.7000 114.100 main 516 493 __________O___ -1 15.7000 114.100 3 7 347
1939146N14114 1939 26 WP MM NOT_NAMED 1939-05-27 00:00:00 NR 15.9224 114.040 main 493 463 __________P___ -1 15.9224 114.040 3 7 342
1939146N14114 1939 26 WP MM NOT_NAMED 1939-05-27 03:00:00 NR 16.2372 113.919 main 463 434 __________P___ -1 16.2372 113.919 3 7 338
1939146N14114 1939 26 WP MM NOT_NAMED 1939-05-27 06:00:00 NR 16.5322 113.778 main 434 397 __________P___ -1 16.5322 113.778 3 6 335
1939146N14114 1939 26 WP MM NOT_NAMED 1939-05-27 09:00:00 NR 16.8104 113.641 main 397 390 __________P___ -1 16.8104 113.641 3 6 335
1939146N14114 1939 26 WP MM NOT_NAMED 1939-05-27 10:00:00 NR 16.9000 113.600 main 390 370 __________O___ -1 16.9000 113.600 4 6 338
1939146N14114 1939 26 WP MM NOT_NAMED 1939-05-27 12:00:00 NR 17.0807 113.533 main 370 349 __________P___ -1 17.0807 113.533 4 6 342
1939146N14114 1939 26 WP MM NOT_NAMED 1939-05-27 15:00:00 NR 17.3392 113.446 main 349 334 __________P___ -1 17.3392 113.446 4 5 343
1939146N14114 1939 26 WP MM NOT_NAMED 1939-05-27 18:00:00 NR 17.5854 113.373 main 334 314 __________P___ -1 17.5854 113.373 4 5 346
1939146N14114 1939 26 WP MM NOT_NAMED 1939-05-27 21:00:00 NR 17.8225 113.316 main 314 307 __________P___ -1 17.8225 113.316 4 5 348
1939146N14114 1939 26 WP MM NOT_NAMED 1939-05-27 22:00:00 NR 17.9000 113.300 main 307 294 __________O___ -1 17.9000 113.300 4 5 345
1939146N14114 1939 26 WP MM NOT_NAMED 1939-05-28 00:00:00 NR 18.0583 113.259 main 294 273 __________P___ -1 18.0583 113.259 4 5 347
1939146N14114 1939 26 WP MM NOT_NAMED 1939-05-28 03:00:00 NR 18.2895 113.209 main 273 261 __________P___ -1 18.2895 113.209 4 5 352
1939146N14114 1939 26 WP MM NOT_NAMED 1939-05-28 06:00:00 NR 18.5133 113.183 main 261 252 __________P___ -1 18.5133 113.183 4 4 357
1939146N14114 1939 26 WP MM NOT_NAMED 1939-05-28 09:00:00 NR 18.7296 113.189 main 252 247 __________P___ -1 18.7296 113.189 4 4 5
1939146N14114 1939 26 WP MM NOT_NAMED 1939-05-28 10:00:00 NR 18.8000 113.200 main 247 240 __________O___ -1 18.8000 113.200 4 5 12
1939146N14114 1939 26 WP MM NOT_NAMED 1939-05-28 12:00:00 NR 18.9521 113.228 main 240 240 __________P___ -1 18.9521 113.228 4 5 14
1939146N14114 1939 26 WP MM NOT_NAMED 1939-05-28 15:00:00 NR 19.1743 113.300 main 245 243 __________P___ -1 19.1743 113.300 4 5 22
1939146N14114 1939 26 WP MM NOT_NAMED 1939-05-28 18:00:00 NR 19.3782 113.408 main 252 252 __________P___ -1 19.3782 113.408 4 4 32
1939146N14114 1939 26 WP MM NOT_NAMED 1939-05-28 21:00:00 NR 19.5513 113.547 main 261 264 __________P___ -1 19.5513 113.547 4 4 39
1939146N14114 1939 26 WP MM NOT_NAMED 1939-05-28 22:00:00 NR 19.6000 113.600 main 264 256 __________O___ -1 19.6000 113.600 4 4 54
1939146N14114 1939 26 WP MM NOT_NAMED 1939-05-29 00:00:00 NR 19.6734 113.718 main 256 252 __________P___ -1 19.6734 113.718 4 4 64
1939146N14114 1939 26 WP MM NOT_NAMED 1939-05-29 03:00:00 NR 19.7518 113.922 main 252 252 __________P___ -1 19.7518 113.922 4 4 71
1939146N14114 1939 26 WP MM NOT_NAMED 1939-05-29 06:00:00 NR 19.8115 114.135 main 261 261 __________P___ -1 19.8115 114.135 4 4 73
1939146N14114 1939 26 WP MM NOT_NAMED 1939-05-29 09:00:00 NR 19.8745 114.339 main 261 261 __________P___ -1 19.8745 114.339 4 4 71
1939146N14114 1939 26 WP MM NOT_NAMED 1939-05-29 10:00:00 NR 19.9000 114.400 main 266 258 __________O___ -1 19.9000 114.400 4 4 59
1939146N14114 1939 26 WP MM NOT_NAMED 1939-05-29 12:00:00 NR 19.9797 114.521 main 258 247 __________P___ -1 19.9797 114.521 4 4 52
1939146N14114 1939 26 WP MM NOT_NAMED 1939-05-29 15:00:00 NR 20.1122 114.685 main 249 238 __________P___ -1 20.1122 114.685 4 4 46
1939146N14114 1939 26 WP MM NOT_NAMED 1939-05-29 18:00:00 NR 20.2461 114.813 main 240 221 __________P___ -1 20.2461 114.813 4 3 37
1939146N14114 1939 26 WP MM NOT_NAMED 1939-05-29 21:00:00 NR 20.3659 114.889 main 221 221 __________P___ -1 20.3659 114.889 4 3 27
1939146N14114 1939 26 WP MM NOT_NAMED 1939-05-29 22:00:00 NR 20.4000 114.900 main 221 210 __________O___ -1 20.4000 114.900 4 2 10
1939146N14114 1939 26 WP MM NOT_NAMED 1939-05-30 00:00:00 NR 20.4530 114.898 main 210 207 __________P___ -1 20.4530 114.898 4 2 335
1939146N14114 1939 26 WP MM NOT_NAMED 1939-05-30 03:00:00 NR 20.5138 114.846 main 207 197 __________P___ -1 20.5138 114.846 4 2 307
1939146N14114 1939 26 WP MM NOT_NAMED 1939-05-30 06:00:00 NR 20.5575 114.751 main 197 192 __________P___ -1 20.5575 114.751 4 2 291
1939146N14114 1939 26 WP MM NOT_NAMED 1939-05-30 09:00:00 NR 20.5904 114.638 main 192 192 __________P___ -1 20.5904 114.638 4 2 287
1939146N14114 1939 26 WP MM NOT_NAMED 1939-05-30 10:00:00 NR 20.6000 114.600 main 192 192 __________O___ -1 20.6000 114.600 4 1 295
1939146N14114 1939 26 WP MM NOT_NAMED 1939-05-30 12:00:00 NR 20.6142 114.576 main 192 191 __________P___ -1 20.6142 114.576 4 1 295
1939146N14114 1939 26 WP MM NOT_NAMED 1939-05-30 15:00:00 NR 20.6290 114.534 main 191 190 __________P___ -1 20.6290 114.534 4 1 285
1939146N14114 1939 26 WP MM NOT_NAMED 1939-05-30 18:00:00 NR 20.6476 114.449 main 190 178 __________P___ -1 20.6476 114.449 4 2 283
1939146N14114 1939 26 WP MM NOT_NAMED 1939-05-30 21:00:00 NR 20.6825 114.281 main 178 178 __________P___ -1 20.6825 114.281 4 4 283
1939146N14114 1939 26 WP MM NOT_NAMED 1939-05-30 22:00:00 NR 20.7000 114.200 main 179 160 __________O___ -1 20.7000 114.200 4 6 284
1939146N14114 1939 26 WP MM NOT_NAMED 1939-05-31 00:00:00 NR 20.7526 113.975 main 160 123 __________P___ -1 20.7526 113.975 4 8 284
1939146N14114 1939 26 WP MM NOT_NAMED 1939-05-31 03:00:00 NR 20.8503 113.549 main 123 101 __________P___ -1 20.8503 113.549 4 9 284
1939146N14114 1939 26 WP MM NOT_NAMED 1939-05-31 06:00:00 NR 20.9591 113.061 main 101 73 __________P___ -1 20.9591 113.061 4 9 283
1939146N14114 1939 26 WP MM NOT_NAMED 1939-05-31 09:00:00 NR 21.0665 112.561 main 73 67 __________P___ -1 21.0665 112.561 4 9 283
1939146N14114 1939 26 WP MM NOT_NAMED 1939-05-31 10:00:00 NR 21.1000 112.400 main 67 54 __________O___ -1 21.1000 112.400 4 9 282
1939146N14114 1939 26 WP MM NOT_NAMED 1939-05-31 12:00:00 NR 21.1616 112.096 main 54 35 __________P___ -1 21.1616 112.096 4 8 282
1939146N14114 1939 26 WP MM NOT_NAMED 1939-05-31 15:00:00 NR 21.2427 111.677 main 35 11 __________P___ -1 21.2427 111.677 4 8 281
1939146N14114 1939 26 WP MM NOT_NAMED 1939-05-31 18:00:00 NR 21.3138 111.290 main 11 10 __________P___ -1 21.3138 111.290 4 7 281
1939146N14114 1939 26 WP MM NOT_NAMED 1939-05-31 21:00:00 NR 21.3789 110.921 main 10 0 __________P___ -1 21.3789 110.921 4 7 281
1939146N14114 1939 26 WP MM NOT_NAMED 1939-05-31 22:00:00 NR 21.4000 110.800 main 0 __________O___ -1 21.4000 110.800 4 7 281

デジタル台風データ・検索

IBTrACS Databaseについて

本データベースは、米国NOAAが公開する1842年以降の世界の熱帯低気圧のベストトラックデータアーカイブInternational Best Track Archive for Climate Stewardship (IBTrACS)を、ウェブで閲覧しやすい形式に変換したものです。

最終更新日:2021-12-01